Terminal Aerodrome Forecast
Issued by NWS

Home | Current Version | Previous Version | Text Only | Print | Product List | Glossary On
Versions: 1 2 3 4 5 6 7 8 9 10 11 12 13 14 15 16 17 18 19
000
FTUS44 KBMX 180659 AAA
TAFANB
TAF AMD
KANB 180659Z 1807/1906 06003KT 4SM BR OVC010
      TEMPO 1809/1813 2SM BR OVC003
     FM181500 08003KT 6SM BR BKN007 OVC015
     FM181800 10005KT P6SM BKN015 OVC035=

USA.gov is the U.S. government's official web portal to all federal, state and local government web resources and services.